sensor_id;sensor_type;location;lat;lon;timestamp;temperature;humidity
58309;DHT22;44117;57.142;24.826;2022-08-03T00:02:15;15.70;99.90
58309;DHT22;44117;57.142;24.826;2022-08-03T00:04:43;15.70;99.90
58309;DHT22;44117;57.142;24.826;2022-08-03T00:07:10;15.60;99.90
58309;DHT22;44117;57.142;24.826;2022-08-03T00:09:38;15.60;99.90
58309;DHT22;44117;57.142;24.826;2022-08-03T00:12:05;15.60;99.90
58309;DHT22;44117;57.142;24.826;2022-08-03T00:14:33;15.50;99.90
58309;DHT22;44117;57.142;24.826;2022-08-03T00:17:00;15.50;99.90
58309;DHT22;44117;57.142;24.826;2022-08-03T00:19:28;15.40;99.90
58309;DHT22;44117;57.142;24.826;2022-08-03T00:21:55;15.40;99.90
58309;DHT22;44117;57.142;24.826;2022-08-03T00:24:23;15.40;99.90
58309;DHT22;44117;57.142;24.826;2022-08-03T00:26:50;15.30;99.90
58309;DHT22;44117;57.142;24.826;2022-08-03T00:29:18;15.20;99.90
58309;DHT22;44117;57.142;24.826;2022-08-03T00:31:45;15.20;99.90
58309;DHT22;44117;57.142;24.826;2022-08-03T00:34:24;15.10;99.90
58309;DHT22;44117;57.142;24.826;2022-08-03T00:37:12;15.00;99.90
58309;DHT22;44117;57.142;24.826;2022-08-03T00:39:39;15.00;99.90
58309;DHT22;44117;57.142;24.826;2022-08-03T00:42:09;15.10;99.90
58309;DHT22;44117;57.142;24.826;2022-08-03T00:44:41;15.10;99.90
58309;DHT22;44117;57.142;24.826;2022-08-03T00:47:09;15.10;99.90
58309;DHT22;44117;57.142;24.826;2022-08-03T00:49:38;15.10;99.90
58309;DHT22;44117;57.142;24.826;2022-08-03T00:52:10;15.10;99.90
58309;DHT22;44117;57.142;24.826;2022-08-03T00:54:39;15.00;99.90
58309;DHT22;44117;57.142;24.826;2022-08-03T00:57:07;15.00;99.90
58309;DHT22;44117;57.142;24.826;2022-08-03T00:59:34;15.00;99.90
58309;DHT22;44117;57.142;24.826;2022-08-03T01:02:04;15.00;99.90
58309;DHT22;44117;57.142;24.826;2022-08-03T01:04:32;15.00;99.90
58309;DHT22;44117;57.142;24.826;2022-08-03T01:07:02;15.00;99.90
58309;DHT22;44117;57.142;24.826;2022-08-03T01:10:12;15.00;99.90
58309;DHT22;44117;57.142;24.826;2022-08-03T01:17:04;15.10;99.90
58309;DHT22;44117;57.142;24.826;2022-08-03T01:25:11;15.40;99.90
58309;DHT22;44117;57.142;24.826;2022-08-03T01:28:11;15.50;99.90
58309;DHT22;44117;57.142;24.826;2022-08-03T01:30:43;15.60;99.90
58309;DHT22;44117;57.142;24.826;2022-08-03T01:33:16;15.70;99.90
58309;DHT22;44117;57.142;24.826;2022-08-03T01:35:56;15.80;99.90
58309;DHT22;44117;57.142;24.826;2022-08-03T01:38:32;15.80;99.90
58309;DHT22;44117;57.142;24.826;2022-08-03T01:41:12;15.90;99.90
58309;DHT22;44117;57.142;24.826;2022-08-03T01:43:43;15.80;99.90
58309;DHT22;44117;57.142;24.826;2022-08-03T01:46:32;15.70;99.90
58309;DHT22;44117;57.142;24.826;2022-08-03T01:49:00;15.70;99.90
58309;DHT22;44117;57.142;24.826;2022-08-03T01:51:37;15.70;99.90
58309;DHT22;44117;57.142;24.826;2022-08-03T01:54:26;15.70;99.90
58309;DHT22;44117;57.142;24.826;2022-08-03T01:56:56;15.70;99.90
58309;DHT22;44117;57.142;24.826;2022-08-03T01:59:26;15.60;99.90
58309;DHT22;44117;57.142;24.826;2022-08-03T02:01:55;15.50;99.90
58309;DHT22;44117;57.142;24.826;2022-08-03T02:04:45;15.50;99.90
58309;DHT22;44117;57.142;24.826;2022-08-03T02:07:14;15.50;99.90
58309;DHT22;44117;57.142;24.826;2022-08-03T02:09:44;15.50;99.90
58309;DHT22;44117;57.142;24.826;2022-08-03T02:12:13;15.50;99.90
58309;DHT22;44117;57.142;24.826;2022-08-03T02:14:43;15.50;99.90
58309;DHT22;44117;57.142;24.826;2022-08-03T02:17:13;15.40;99.90
58309;DHT22;44117;57.142;24.826;2022-08-03T02:19:42;15.20;99.90
58309;DHT22;44117;57.142;24.826;2022-08-03T02:22:11;15.20;99.90
58309;DHT22;44117;57.142;24.826;2022-08-03T02:24:40;15.10;99.90
58309;DHT22;44117;57.142;24.826;2022-08-03T02:27:34;15.10;99.90
58309;DHT22;44117;57.142;24.826;2022-08-03T02:30:10;15.10;99.90
58309;DHT22;44117;57.142;24.826;2022-08-03T02:32:40;15.10;99.90
58309;DHT22;44117;57.142;24.826;2022-08-03T02:35:13;15.00;99.90
58309;DHT22;44117;57.142;24.826;2022-08-03T02:37:45;15.00;99.90
58309;DHT22;44117;57.142;24.826;2022-08-03T02:40:17;15.00;99.90
58309;DHT22;44117;57.142;24.826;2022-08-03T02:42:46;15.00;99.90
58309;DHT22;44117;57.142;24.826;2022-08-03T02:45:15;15.00;99.90
58309;DHT22;44117;57.142;24.826;2022-08-03T02:47:45;15.00;99.90
58309;DHT22;44117;57.142;24.826;2022-08-03T02:50:21;15.00;99.90
58309;DHT22;44117;57.142;24.826;2022-08-03T02:52:50;15.00;99.90
58309;DHT22;44117;57.142;24.826;2022-08-03T02:55:20;15.00;99.90
58309;DHT22;44117;57.142;24.826;2022-08-03T02:57:49;15.10;99.90
58309;DHT22;44117;57.142;24.826;2022-08-03T03:00:18;15.20;99.90
58309;DHT22;44117;57.142;24.826;2022-08-03T03:02:57;15.20;99.90
58309;DHT22;44117;57.142;24.826;2022-08-03T03:05:26;15.30;99.90
58309;DHT22;44117;57.142;24.826;2022-08-03T03:08:16;15.30;99.90
58309;DHT22;44117;57.142;24.826;2022-08-03T03:10:53;15.50;99.90
58309;DHT22;44117;57.142;24.826;2022-08-03T03:13:22;15.50;99.90
58309;DHT22;44117;57.142;24.826;2022-08-03T03:15:51;15.60;99.90
58309;DHT22;44117;57.142;24.826;2022-08-03T03:18:20;15.70;99.90
58309;DHT22;44117;57.142;24.826;2022-08-03T03:20:50;15.80;99.90
58309;DHT22;44117;57.142;24.826;2022-08-03T03:23:21;16.00;99.90
58309;DHT22;44117;57.142;24.826;2022-08-03T03:25:50;16.10;99.90
58309;DHT22;44117;57.142;24.826;2022-08-03T03:28:17;16.20;99.90
58309;DHT22;44117;57.142;24.826;2022-08-03T03:30:45;16.30;99.90
58309;DHT22;44117;57.142;24.826;2022-08-03T03:33:19;16.40;99.90
58309;DHT22;44117;57.142;24.826;2022-08-03T03:35:47;16.60;99.90
58309;DHT22;44117;57.142;24.826;2022-08-03T03:38:14;16.70;99.90
58309;DHT22;44117;57.142;24.826;2022-08-03T03:40:42;16.70;99.90
58309;DHT22;44117;57.142;24.826;2022-08-03T03:43:11;16.70;99.90
58309;DHT22;44117;57.142;24.826;2022-08-03T03:45:41;16.80;99.90
58309;DHT22;44117;57.142;24.826;2022-08-03T03:48:09;16.70;99.90
58309;DHT22;44117;57.142;24.826;2022-08-03T03:50:37;16.80;99.90
58309;DHT22;44117;57.142;24.826;2022-08-03T03:53:12;16.80;99.90
58309;DHT22;44117;57.142;24.826;2022-08-03T03:55:41;16.70;99.90
58309;DHT22;44117;57.142;24.826;2022-08-03T03:58:29;16.60;99.90
58309;DHT22;44117;57.142;24.826;2022-08-03T04:00:57;16.70;99.90
58309;DHT22;44117;57.142;24.826;2022-08-03T04:03:25;16.70;99.90
58309;DHT22;44117;57.142;24.826;2022-08-03T04:05:52;16.80;99.90
58309;DHT22;44117;57.142;24.826;2022-08-03T04:08:39;16.90;99.90
58309;DHT22;44117;57.142;24.826;2022-08-03T04:11:30;16.90;99.90
58309;DHT22;44117;57.142;24.826;2022-08-03T04:14:08;17.00;99.90
58309;DHT22;44117;57.142;24.826;2022-08-03T04:16:45;17.00;99.90
58309;DHT22;44117;57.142;24.826;2022-08-03T04:21:56;17.00;99.90
58309;DHT22;44117;57.142;24.826;2022-08-03T04:24:37;17.00;99.90
58309;DHT22;44117;57.142;24.826;2022-08-03T04:27:07;17.00;99.90
58309;DHT22;44117;57.142;24.826;2022-08-03T04:29:40;17.10;99.90
58309;DHT22;44117;57.142;24.826;2022-08-03T04:32:15;17.10;99.90
58309;DHT22;44117;57.142;24.826;2022-08-03T04:34:43;17.20;99.90
58309;DHT22;44117;57.142;24.826;2022-08-03T04:37:16;17.00;99.90
58309;DHT22;44117;57.142;24.826;2022-08-03T04:39:47;17.10;99.90
58309;DHT22;44117;57.142;24.826;2022-08-03T04:42:15;17.10;99.90
58309;DHT22;44117;57.142;24.826;2022-08-03T04:44:46;17.20;99.90
58309;DHT22;44117;57.142;24.826;2022-08-03T04:47:15;17.30;99.90
58309;DHT22;44117;57.142;24.826;2022-08-03T04:49:42;17.60;99.90
58309;DHT22;44117;57.142;24.826;2022-08-03T04:52:10;17.70;99.90
58309;DHT22;44117;57.142;24.826;2022-08-03T04:54:42;17.80;99.90
58309;DHT22;44117;57.142;24.826;2022-08-03T04:57:17;17.80;99.90
58309;DHT22;44117;57.142;24.826;2022-08-03T04:59:52;17.80;99.90
58309;DHT22;44117;57.142;24.826;2022-08-03T05:02:27;17.60;99.90
58309;DHT22;44117;57.142;24.826;2022-08-03T05:04:55;17.60;99.90
58309;DHT22;44117;57.142;24.826;2022-08-03T05:07:22;17.70;99.90
58309;DHT22;44117;57.142;24.826;2022-08-03T05:09:51;17.70;99.90
58309;DHT22;44117;57.142;24.826;2022-08-03T05:12:28;17.90;99.90
58309;DHT22;44117;57.142;24.826;2022-08-03T05:15:00;18.00;99.90
58309;DHT22;44117;57.142;24.826;2022-08-03T05:17:28;18.10;99.90
58309;DHT22;44117;57.142;24.826;2022-08-03T05:19:55;17.80;99.90
58309;DHT22;44117;57.142;24.826;2022-08-03T05:22:22;17.70;99.90
58309;DHT22;44117;57.142;24.826;2022-08-03T05:24:50;17.70;99.90
58309;DHT22;44117;57.142;24.826;2022-08-03T05:27:18;17.60;99.90
58309;DHT22;44117;57.142;24.826;2022-08-03T05:29:47;17.60;99.90
58309;DHT22;44117;57.142;24.826;2022-08-03T05:32:15;17.70;99.90
58309;DHT22;44117;57.142;24.826;2022-08-03T05:34:43;17.50;99.90
58309;DHT22;44117;57.142;24.826;2022-08-03T05:37:11;17.60;99.90
58309;DHT22;44117;57.142;24.826;2022-08-03T05:39:38;17.50;99.90
58309;DHT22;44117;57.142;24.826;2022-08-03T05:42:06;17.60;99.90
58309;DHT22;44117;57.142;24.826;2022-08-03T05:44:34;17.50;99.90
58309;DHT22;44117;57.142;24.826;2022-08-03T05:47:05;17.40;99.90
58309;DHT22;44117;57.142;24.826;2022-08-03T05:49:32;17.50;99.90
58309;DHT22;44117;57.142;24.826;2022-08-03T05:51:59;17.50;99.90
58309;DHT22;44117;57.142;24.826;2022-08-03T05:54:41;17.40;99.90
58309;DHT22;44117;57.142;24.826;2022-08-03T05:57:24;17.50;99.90
58309;DHT22;44117;57.142;24.826;2022-08-03T05:59:51;17.50;99.90
58309;DHT22;44117;57.142;24.826;2022-08-03T06:02:25;17.50;99.90
58309;DHT22;44117;57.142;24.826;2022-08-03T06:04:53;17.50;99.90
58309;DHT22;44117;57.142;24.826;2022-08-03T06:07:20;17.50;99.90
58309;DHT22;44117;57.142;24.826;2022-08-03T06:09:48;17.60;99.90
58309;DHT22;44117;57.142;24.826;2022-08-03T06:12:35;17.60;99.90
58309;DHT22;44117;57.142;24.826;2022-08-03T06:15:04;17.80;99.90
58309;DHT22;44117;57.142;24.826;2022-08-03T06:17:33;17.80;99.90
58309;DHT22;44117;57.142;24.826;2022-08-03T06:20:04;17.80;99.90
58309;DHT22;44117;57.142;24.826;2022-08-03T06:22:32;17.90;99.90
58309;DHT22;44117;57.142;24.826;2022-08-03T06:24:59;18.10;99.90
58309;DHT22;44117;57.142;24.826;2022-08-03T06:27:32;18.40;99.90
58309;DHT22;44117;57.142;24.826;2022-08-03T06:30:07;19.00;99.90
58309;DHT22;44117;57.142;24.826;2022-08-03T06:32:37;19.10;99.90
58309;DHT22;44117;57.142;24.826;2022-08-03T06:35:06;19.40;99.90
58309;DHT22;44117;57.142;24.826;2022-08-03T06:37:48;19.90;99.90
58309;DHT22;44117;57.142;24.826;2022-08-03T06:40:18;20.00;99.90
58309;DHT22;44117;57.142;24.826;2022-08-03T06:42:50;19.90;99.90
58309;DHT22;44117;57.142;24.826;2022-08-03T06:45:17;20.50;99.90
58309;DHT22;44117;57.142;24.826;2022-08-03T06:47:45;20.30;99.90
58309;DHT22;44117;57.142;24.826;2022-08-03T06:50:12;20.80;99.90
58309;DHT22;44117;57.142;24.826;2022-08-03T06:52:44;21.00;99.90
58309;DHT22;44117;57.142;24.826;2022-08-03T06:55:12;20.70;99.90
58309;DHT22;44117;57.142;24.826;2022-08-03T06:57:39;20.40;99.90
58309;DHT22;44117;57.142;24.826;2022-08-03T07:00:07;20.40;99.90
58309;DHT22;44117;57.142;24.826;2022-08-03T07:02:38;20.60;99.90
58309;DHT22;44117;57.142;24.826;2022-08-03T07:05:06;20.80;99.90
58309;DHT22;44117;57.142;24.826;2022-08-03T07:07:34;20.50;99.90
58309;DHT22;44117;57.142;24.826;2022-08-03T07:10:03;20.30;99.90
58309;DHT22;44117;57.142;24.826;2022-08-03T07:12:32;20.40;99.90
58309;DHT22;44117;57.142;24.826;2022-08-03T07:15:01;20.20;99.90
58309;DHT22;44117;57.142;24.826;2022-08-03T07:17:30;20.40;99.90
58309;DHT22;44117;57.142;24.826;2022-08-03T07:19:58;20.10;99.90
58309;DHT22;44117;57.142;24.826;2022-08-03T07:22:26;20.10;99.90
58309;DHT22;44117;57.142;24.826;2022-08-03T07:24:55;20.00;99.90
58309;DHT22;44117;57.142;24.826;2022-08-03T07:27:22;20.00;99.90
58309;DHT22;44117;57.142;24.826;2022-08-03T07:29:50;20.20;99.90
58309;DHT22;44117;57.142;24.826;2022-08-03T07:32:17;20.30;99.90
58309;DHT22;44117;57.142;24.826;2022-08-03T07:34:45;20.10;99.90
58309;DHT22;44117;57.142;24.826;2022-08-03T07:37:12;20.30;99.90
58309;DHT22;44117;57.142;24.826;2022-08-03T07:39:39;20.30;99.90
58309;DHT22;44117;57.142;24.826;2022-08-03T07:42:07;20.50;99.90
58309;DHT22;44117;57.142;24.826;2022-08-03T07:44:34;20.30;99.90
58309;DHT22;44117;57.142;24.826;2022-08-03T07:47:01;20.30;99.90
58309;DHT22;44117;57.142;24.826;2022-08-03T07:49:29;20.10;99.90
58309;DHT22;44117;57.142;24.826;2022-08-03T07:51:57;19.90;99.90
58309;DHT22;44117;57.142;24.826;2022-08-03T07:55:04;20.00;99.90
58309;DHT22;44117;57.142;24.826;2022-08-03T07:57:33;20.00;99.90
58309;DHT22;44117;57.142;24.826;2022-08-03T08:00:07;20.00;99.90
58309;DHT22;44117;57.142;24.826;2022-08-03T08:02:39;19.80;99.90
58309;DHT22;44117;57.142;24.826;2022-08-03T08:05:07;19.80;99.90
58309;DHT22;44117;57.142;24.826;2022-08-03T08:07:35;20.00;99.90
58309;DHT22;44117;57.142;24.826;2022-08-03T08:10:04;20.00;99.90
58309;DHT22;44117;57.142;24.826;2022-08-03T08:12:32;20.20;99.90
58309;DHT22;44117;57.142;24.826;2022-08-03T08:14:59;20.20;99.90
58309;DHT22;44117;57.142;24.826;2022-08-03T08:17:27;20.40;99.90
58309;DHT22;44117;57.142;24.826;2022-08-03T08:19:54;20.50;99.90
58309;DHT22;44117;57.142;24.826;2022-08-03T08:22:23;20.60;99.90
58309;DHT22;44117;57.142;24.826;2022-08-03T08:24:57;20.90;99.90
58309;DHT22;44117;57.142;24.826;2022-08-03T08:27:27;20.90;99.90
58309;DHT22;44117;57.142;24.826;2022-08-03T08:30:16;20.90;99.90
58309;DHT22;44117;57.142;24.826;2022-08-03T08:32:45;21.40;99.90
58309;DHT22;44117;57.142;24.826;2022-08-03T08:35:13;21.50;99.90
58309;DHT22;44117;57.142;24.826;2022-08-03T08:37:41;21.60;98.20
58309;DHT22;44117;57.142;24.826;2022-08-03T08:40:19;21.90;98.40
58309;DHT22;44117;57.142;24.826;2022-08-03T08:42:47;21.80;98.90
58309;DHT22;44117;57.142;24.826;2022-08-03T08:45:25;21.80;99.20
58309;DHT22;44117;57.142;24.826;2022-08-03T08:47:54;21.70;97.40
58309;DHT22;44117;57.142;24.826;2022-08-03T08:50:28;21.40;97.90
58309;DHT22;44117;57.142;24.826;2022-08-03T08:52:59;21.70;99.70
58309;DHT22;44117;57.142;24.826;2022-08-03T08:55:28;21.90;98.00
58309;DHT22;44117;57.142;24.826;2022-08-03T08:58:16;22.00;98.10
58309;DHT22;44117;57.142;24.826;2022-08-03T09:00:46;21.90;96.20
58309;DHT22;44117;57.142;24.826;2022-08-03T09:03:14;21.90;96.90
58309;DHT22;44117;57.142;24.826;2022-08-03T09:05:58;22.10;94.90
58309;DHT22;44117;57.142;24.826;2022-08-03T09:08:30;22.30;94.40
58309;DHT22;44117;57.142;24.826;2022-08-03T09:10:58;22.20;93.30
58309;DHT22;44117;57.142;24.826;2022-08-03T09:13:26;22.30;92.60
58309;DHT22;44117;57.142;24.826;2022-08-03T09:16:17;22.60;93.60
58309;DHT22;44117;57.142;24.826;2022-08-03T09:18:47;22.30;92.90
58309;DHT22;44117;57.142;24.826;2022-08-03T09:21:17;22.70;92.50
58309;DHT22;44117;57.142;24.826;2022-08-03T09:24:02;23.00;90.50
58309;DHT22;44117;57.142;24.826;2022-08-03T09:26:36;22.70;88.10
58309;DHT22;44117;57.142;24.826;2022-08-03T09:29:09;22.50;89.40
58309;DHT22;44117;57.142;24.826;2022-08-03T09:31:44;22.30;88.00
58309;DHT22;44117;57.142;24.826;2022-08-03T09:34:15;22.30;90.60
58309;DHT22;44117;57.142;24.826;2022-08-03T09:36:47;22.30;90.70
58309;DHT22;44117;57.142;24.826;2022-08-03T09:39:19;22.10;90.00
58309;DHT22;44117;57.142;24.826;2022-08-03T09:42:09;21.60;89.40
58309;DHT22;44117;57.142;24.826;2022-08-03T09:44:42;21.40;87.00
58309;DHT22;44117;57.142;24.826;2022-08-03T09:47:15;21.40;82.90
58309;DHT22;44117;57.142;24.826;2022-08-03T09:50:03;21.60;80.10
58309;DHT22;44117;57.142;24.826;2022-08-03T09:52:36;21.90;80.30
58309;DHT22;44117;57.142;24.826;2022-08-03T09:55:16;22.10;78.70
58309;DHT22;44117;57.142;24.826;2022-08-03T09:58:06;22.40;82.90
58309;DHT22;44117;57.142;24.826;2022-08-03T10:00:52;22.00;83.20
58309;DHT22;44117;57.142;24.826;2022-08-03T10:03:21;22.20;82.20
58309;DHT22;44117;57.142;24.826;2022-08-03T10:05:49;22.50;87.30
58309;DHT22;44117;57.142;24.826;2022-08-03T10:08:20;22.50;79.60
58309;DHT22;44117;57.142;24.826;2022-08-03T10:10:49;22.30;79.50
58309;DHT22;44117;57.142;24.826;2022-08-03T10:13:21;22.20;80.90
58309;DHT22;44117;57.142;24.826;2022-08-03T10:15:49;22.40;77.20
58309;DHT22;44117;57.142;24.826;2022-08-03T10:18:37;22.80;76.00
58309;DHT22;44117;57.142;24.826;2022-08-03T10:21:07;23.30;73.50
58309;DHT22;44117;57.142;24.826;2022-08-03T10:23:37;23.70;69.70
58309;DHT22;44117;57.142;24.826;2022-08-03T10:26:07;23.70;69.20
58309;DHT22;44117;57.142;24.826;2022-08-03T10:28:40;24.10;65.40
58309;DHT22;44117;57.142;24.826;2022-08-03T10:31:12;24.30;67.10
58309;DHT22;44117;57.142;24.826;2022-08-03T10:33:46;25.00;69.10
58309;DHT22;44117;57.142;24.826;2022-08-03T10:36:23;25.50;67.80
58309;DHT22;44117;57.142;24.826;2022-08-03T10:38:54;26.00;68.20
58309;DHT22;44117;57.142;24.826;2022-08-03T10:41:25;26.70;67.40
58309;DHT22;44117;57.142;24.826;2022-08-03T10:44:13;26.30;65.80
58309;DHT22;44117;57.142;24.826;2022-08-03T10:46:43;26.50;64.10
58309;DHT22;44117;57.142;24.826;2022-08-03T10:49:13;26.90;65.80
58309;DHT22;44117;57.142;24.826;2022-08-03T10:51:44;27.70;64.60
58309;DHT22;44117;57.142;24.826;2022-08-03T10:54:37;27.20;66.60
58309;DHT22;44117;57.142;24.826;2022-08-03T11:00:16;28.20;64.20
58309;DHT22;44117;57.142;24.826;2022-08-03T11:03:09;27.70;64.70
58309;DHT22;44117;57.142;24.826;2022-08-03T11:05:47;28.00;66.40
58309;DHT22;44117;57.142;24.826;2022-08-03T11:08:27;28.50;61.30
58309;DHT22;44117;57.142;24.826;2022-08-03T11:10:58;28.70;62.20
58309;DHT22;44117;57.142;24.826;2022-08-03T11:13:27;27.80;58.90
58309;DHT22;44117;57.142;24.826;2022-08-03T11:15:59;27.70;63.80
58309;DHT22;44117;57.142;24.826;2022-08-03T11:18:31;28.10;63.40
58309;DHT22;44117;57.142;24.826;2022-08-03T11:20:59;29.00;61.40
58309;DHT22;44117;57.142;24.826;2022-08-03T11:26:31;30.00;58.70
58309;DHT22;44117;57.142;24.826;2022-08-03T11:29:27;29.60;60.40
58309;DHT22;44117;57.142;24.826;2022-08-03T11:31:55;29.70;56.70
58309;DHT22;44117;57.142;24.826;2022-08-03T11:34:23;29.50;55.70
58309;DHT22;44117;57.142;24.826;2022-08-03T11:37:22;30.00;56.00
58309;DHT22;44117;57.142;24.826;2022-08-03T11:39:55;30.80;55.20
58309;DHT22;44117;57.142;24.826;2022-08-03T11:44:58;29.50;57.10
58309;DHT22;44117;57.142;24.826;2022-08-03T11:47:27;29.90;57.10
58309;DHT22;44117;57.142;24.826;2022-08-03T11:49:57;30.40;61.00
58309;DHT22;44117;57.142;24.826;2022-08-03T11:52:26;30.30;59.00
58309;DHT22;44117;57.142;24.826;2022-08-03T11:55:00;29.30;56.80
58309;DHT22;44117;57.142;24.826;2022-08-03T11:57:32;29.10;59.30
58309;DHT22;44117;57.142;24.826;2022-08-03T12:00:37;30.00;59.50
58309;DHT22;44117;57.142;24.826;2022-08-03T12:03:09;30.70;58.60
58309;DHT22;44117;57.142;24.826;2022-08-03T12:05:50;31.30;57.90
58309;DHT22;44117;57.142;24.826;2022-08-03T12:08:29;30.90;56.50
58309;DHT22;44117;57.142;24.826;2022-08-03T12:11:01;30.80;59.60
58309;DHT22;44117;57.142;24.826;2022-08-03T12:13:42;31.50;57.40
58309;DHT22;44117;57.142;24.826;2022-08-03T12:16:29;30.70;57.80
58309;DHT22;44117;57.142;24.826;2022-08-03T12:18:59;31.80;56.90
58309;DHT22;44117;57.142;24.826;2022-08-03T12:21:27;33.30;57.30
58309;DHT22;44117;57.142;24.826;2022-08-03T12:24:00;33.20;57.40
58309;DHT22;44117;57.142;24.826;2022-08-03T12:26:29;32.50;57.20
58309;DHT22;44117;57.142;24.826;2022-08-03T12:28:57;32.90;57.70
58309;DHT22;44117;57.142;24.826;2022-08-03T12:31:24;33.10;57.20
58309;DHT22;44117;57.142;24.826;2022-08-03T12:36:25;32.80;53.80
58309;DHT22;44117;57.142;24.826;2022-08-03T12:38:58;32.20;54.70
58309;DHT22;44117;57.142;24.826;2022-08-03T12:41:31;31.70;54.80
58309;DHT22;44117;57.142;24.826;2022-08-03T12:44:01;31.40;57.50
58309;DHT22;44117;57.142;24.826;2022-08-03T12:46:32;32.10;55.20
58309;DHT22;44117;57.142;24.826;2022-08-03T12:49:06;32.70;55.70
58309;DHT22;44117;57.142;24.826;2022-08-03T12:51:54;32.70;55.80
58309;DHT22;44117;57.142;24.826;2022-08-03T12:54:25;34.10;58.50
58309;DHT22;44117;57.142;24.826;2022-08-03T12:57:10;35.10;55.20
58309;DHT22;44117;57.142;24.826;2022-08-03T12:59:45;33.10;49.50
58309;DHT22;44117;57.142;24.826;2022-08-03T13:02:21;32.70;50.80
58309;DHT22;44117;57.142;24.826;2022-08-03T13:04:51;31.40;52.40
58309;DHT22;44117;57.142;24.826;2022-08-03T13:07:20;31.60;50.70
58309;DHT22;44117;57.142;24.826;2022-08-03T13:09:50;31.90;50.60
58309;DHT22;44117;57.142;24.826;2022-08-03T13:12:23;32.50;48.90
58309;DHT22;44117;57.142;24.826;2022-08-03T13:14:55;32.70;50.60
58309;DHT22;44117;57.142;24.826;2022-08-03T13:17:23;32.40;51.10
58309;DHT22;44117;57.142;24.826;2022-08-03T13:19:50;34.00;50.70
58309;DHT22;44117;57.142;24.826;2022-08-03T13:22:20;33.50;50.60
58309;DHT22;44117;57.142;24.826;2022-08-03T13:24:51;32.40;51.20
58309;DHT22;44117;57.142;24.826;2022-08-03T13:27:19;33.90;53.00
58309;DHT22;44117;57.142;24.826;2022-08-03T13:30:07;33.80;49.50
58309;DHT22;44117;57.142;24.826;2022-08-03T13:32:35;34.90;49.40
58309;DHT22;44117;57.142;24.826;2022-08-03T13:35:03;35.50;47.00
58309;DHT22;44117;57.142;24.826;2022-08-03T13:37:30;35.60;48.00
58309;DHT22;44117;57.142;24.826;2022-08-03T13:39:59;36.90;47.80
58309;DHT22;44117;57.142;24.826;2022-08-03T13:42:30;36.70;47.40
58309;DHT22;44117;57.142;24.826;2022-08-03T13:44:59;36.30;48.20
58309;DHT22;44117;57.142;24.826;2022-08-03T13:47:27;35.50;49.50
58309;DHT22;44117;57.142;24.826;2022-08-03T13:49:55;34.40;49.00
58309;DHT22;44117;57.142;24.826;2022-08-03T13:52:35;35.80;50.10
58309;DHT22;44117;57.142;24.826;2022-08-03T13:55:04;36.30;49.70
58309;DHT22;44117;57.142;24.826;2022-08-03T13:57:34;34.20;49.00
58309;DHT22;44117;57.142;24.826;2022-08-03T14:00:21;35.30;47.80
58309;DHT22;44117;57.142;24.826;2022-08-03T14:02:56;34.40;47.90
58309;DHT22;44117;57.142;24.826;2022-08-03T14:05:33;34.40;48.90
58309;DHT22;44117;57.142;24.826;2022-08-03T14:08:02;35.20;47.40
58309;DHT22;44117;57.142;24.826;2022-08-03T14:10:33;34.50;46.50
58309;DHT22;44117;57.142;24.826;2022-08-03T14:13:01;34.10;47.30
58309;DHT22;44117;57.142;24.826;2022-08-03T14:15:28;33.70;47.50
58309;DHT22;44117;57.142;24.826;2022-08-03T14:17:56;34.20;47.60
58309;DHT22;44117;57.142;24.826;2022-08-03T14:20:25;34.80;46.60
58309;DHT22;44117;57.142;24.826;2022-08-03T14:23:11;34.70;47.90
58309;DHT22;44117;57.142;24.826;2022-08-03T14:25:40;36.20;45.60
58309;DHT22;44117;57.142;24.826;2022-08-03T14:28:20;37.10;44.90
58309;DHT22;44117;57.142;24.826;2022-08-03T14:30:50;37.70;45.50
58309;DHT22;44117;57.142;24.826;2022-08-03T14:33:18;36.00;44.60
58309;DHT22;44117;57.142;24.826;2022-08-03T14:35:46;34.50;45.40
58309;DHT22;44117;57.142;24.826;2022-08-03T14:38:14;34.50;46.00
58309;DHT22;44117;57.142;24.826;2022-08-03T14:40:42;35.10;47.40
58309;DHT22;44117;57.142;24.826;2022-08-03T14:43:09;36.30;44.50
58309;DHT22;44117;57.142;24.826;2022-08-03T14:45:38;36.00;46.60
58309;DHT22;44117;57.142;24.826;2022-08-03T14:48:05;37.40;46.40
58309;DHT22;44117;57.142;24.826;2022-08-03T14:50:53;37.60;42.80
58309;DHT22;44117;57.142;24.826;2022-08-03T14:53:21;38.10;42.60
58309;DHT22;44117;57.142;24.826;2022-08-03T14:55:49;38.60;42.30
58309;DHT22;44117;57.142;24.826;2022-08-03T14:58:19;37.60;43.70
58309;DHT22;44117;57.142;24.826;2022-08-03T15:00:49;37.40;45.10
58309;DHT22;44117;57.142;24.826;2022-08-03T15:03:18;35.20;44.80
58309;DHT22;44117;57.142;24.826;2022-08-03T15:05:53;35.00;46.10
58309;DHT22;44117;57.142;24.826;2022-08-03T15:08:22;34.50;46.40
58309;DHT22;44117;57.142;24.826;2022-08-03T15:10:51;34.00;46.30
58309;DHT22;44117;57.142;24.826;2022-08-03T15:13:19;34.10;45.80
58309;DHT22;44117;57.142;24.826;2022-08-03T15:15:47;34.20;44.80
58309;DHT22;44117;57.142;24.826;2022-08-03T15:18:14;35.10;45.40
58309;DHT22;44117;57.142;24.826;2022-08-03T15:20:42;35.90;44.90
58309;DHT22;44117;57.142;24.826;2022-08-03T15:23:13;36.60;44.00
58309;DHT22;44117;57.142;24.826;2022-08-03T15:25:43;35.30;43.80
58309;DHT22;44117;57.142;24.826;2022-08-03T15:28:31;35.70;45.10
58309;DHT22;44117;57.142;24.826;2022-08-03T15:30:58;35.90;43.40
58309;DHT22;44117;57.142;24.826;2022-08-03T15:33:26;35.70;45.00
58309;DHT22;44117;57.142;24.826;2022-08-03T15:35:55;35.80;44.60
58309;DHT22;44117;57.142;24.826;2022-08-03T15:38:22;36.80;42.90
58309;DHT22;44117;57.142;24.826;2022-08-03T15:40:55;37.40;43.60
58309;DHT22;44117;57.142;24.826;2022-08-03T15:43:23;36.00;44.80
58309;DHT22;44117;57.142;24.826;2022-08-03T15:45:51;36.30;44.00
58309;DHT22;44117;57.142;24.826;2022-08-03T15:48:39;37.20;44.70
58309;DHT22;44117;57.142;24.826;2022-08-03T15:51:07;38.50;42.40
58309;DHT22;44117;57.142;24.826;2022-08-03T15:53:36;38.30;43.70
58309;DHT22;44117;57.142;24.826;2022-08-03T15:56:03;37.50;42.50
58309;DHT22;44117;57.142;24.826;2022-08-03T15:58:38;36.60;43.60
58309;DHT22;44117;57.142;24.826;2022-08-03T16:01:26;36.80;44.10
58309;DHT22;44117;57.142;24.826;2022-08-03T16:03:54;36.30;45.00
58309;DHT22;44117;57.142;24.826;2022-08-03T16:06:21;37.70;44.10
58309;DHT22;44117;57.142;24.826;2022-08-03T16:09:02;36.90;44.10
58309;DHT22;44117;57.142;24.826;2022-08-03T16:11:30;36.20;45.30